RYR55PN LIMP-LIEE
Flight info
| Callsign | RYR55PN |
|---|---|
| Flight time | 1h 5m |
| Altitude | 35000 |
| Route | OSBUL L153 BEROK DCT UREXE DCT VAVAX Q125 KOVAS |
| Aircraft | B738/M-SDE2E3FGHIRWXY/LB1 |
Departure
| Time | 2026-05-06 14:27 |
|---|---|
| Airport | Parma Airport (LIMP) |
Arrival
| Time | 2026-05-06 15:33 |
|---|---|
| Airport | Cagliari Elmas Airport (LIEE) |
| Time | Latitude | Longitude | Altitude | Speed | Heading |
|---|---|---|---|---|---|
| 2026-05-06 14:05 | 44.81988 | 10.29755 | 164 ft | 0 kts | 158° |
| 2026-05-06 14:23 | 44.81983 | 10.29747 | 165 ft | 2 kts | 236° |
| 2026-05-06 14:23 | 44.81996 | 10.29714 | 166 ft | 10 kts | 304° |
| 2026-05-06 14:24 | 44.82090 | 10.29682 | 163 ft | 16 kts | 339° |
| 2026-05-06 14:24 | 44.82198 | 10.29679 | 162 ft | 16 kts | 15° |
| 2026-05-06 14:24 | 44.82302 | 10.29713 | 163 ft | 15 kts | 349° |
| 2026-05-06 14:24 | 44.82399 | 10.29648 | 163 ft | 17 kts | 332° |
| 2026-05-06 14:25 | 44.82545 | 10.29656 | 163 ft | 28 kts | 18° |
| 2026-05-06 14:25 | 44.82766 | 10.29752 | 161 ft | 39 kts | 17° |
| 2026-05-06 14:25 | 44.83037 | 10.29869 | 156 ft | 40 kts | 17° |
| 2026-05-06 14:25 | 44.83290 | 10.29976 | 152 ft | 37 kts | 18° |
| 2026-05-06 14:26 | 44.83512 | 10.30083 | 153 ft | 27 kts | 27° |
| 2026-05-06 14:26 | 44.83567 | 10.30112 | 154 ft | 3 kts | 266° |
| 2026-05-06 14:26 | 44.83545 | 10.30095 | 153 ft | 5 kts | 201° |
| 2026-05-06 14:26 | 44.83292 | 10.29983 | 152 ft | 80 kts | 197° |
| 2026-05-06 14:27 | 44.82512 | 10.29643 | 163 ft | 152 kts | 197° |
| 2026-05-06 14:27 | 44.81355 | 10.29126 | 587 ft | 179 kts | 200° |
| 2026-05-06 14:27 | 44.80282 | 10.28366 | 1848 ft | 166 kts | 210° |
| 2026-05-06 14:27 | 44.79186 | 10.27725 | 2585 ft | 183 kts | 197° |
| 2026-05-06 14:28 | 44.77885 | 10.27351 | 2953 ft | 205 kts | 182° |
| 2026-05-06 14:28 | 44.76366 | 10.27568 | 3002 ft | 228 kts | 175° |
| 2026-05-06 14:28 | 44.74777 | 10.27848 | 3000 ft | 234 kts | 175° |
| 2026-05-06 14:28 | 44.73086 | 10.28123 | 3386 ft | 252 kts | 176° |
| 2026-05-06 14:29 | 44.71357 | 10.28390 | 4437 ft | 248 kts | 177° |
| 2026-05-06 14:29 | 44.69643 | 10.28642 | 5397 ft | 250 kts | 179° |
| 2026-05-06 14:29 | 44.67908 | 10.28883 | 6323 ft | 252 kts | 180° |
| 2026-05-06 14:29 | 44.66141 | 10.29120 | 7115 ft | 258 kts | 179° |
| 2026-05-06 14:30 | 44.64340 | 10.29354 | 7929 ft | 263 kts | 179° |
| 2026-05-06 14:30 | 44.62502 | 10.29589 | 8729 ft | 267 kts | 179° |
| 2026-05-06 14:30 | 44.60636 | 10.29826 | 9527 ft | 272 kts | 179° |
| 2026-05-06 14:30 | 44.58730 | 10.30063 | 10229 ft | 280 kts | 179° |
| 2026-05-06 14:31 | 44.56735 | 10.30304 | 10448 ft | 304 kts | 179° |
| 2026-05-06 14:31 | 44.54541 | 10.30570 | 10666 ft | 328 kts | 178° |
| 2026-05-06 14:31 | 44.52204 | 10.30858 | 11374 ft | 330 kts | 179° |
| 2026-05-06 14:31 | 44.49913 | 10.31147 | 12286 ft | 333 kts | 179° |
| 2026-05-06 14:32 | 44.47597 | 10.31433 | 13062 ft | 336 kts | 179° |
| 2026-05-06 14:32 | 44.45275 | 10.31716 | 13694 ft | 344 kts | 179° |
| 2026-05-06 14:32 | 44.42869 | 10.32009 | 14320 ft | 349 kts | 179° |
| 2026-05-06 14:32 | 44.40436 | 10.32306 | 15028 ft | 352 kts | 179° |
| 2026-05-06 14:33 | 44.37989 | 10.32605 | 15748 ft | 354 kts | 179° |
| 2026-05-06 14:33 | 44.35520 | 10.32906 | 16404 ft | 358 kts | 180° |
| 2026-05-06 14:33 | 44.33026 | 10.33208 | 17042 ft | 362 kts | 179° |
| 2026-05-06 14:33 | 44.30507 | 10.33513 | 17700 ft | 365 kts | 179° |
| 2026-05-06 14:34 | 44.27965 | 10.33821 | 18352 ft | 369 kts | 180° |
| 2026-05-06 14:34 | 44.25397 | 10.34133 | 18920 ft | 372 kts | 180° |
| 2026-05-06 14:34 | 44.22808 | 10.34448 | 19512 ft | 375 kts | 180° |
| 2026-05-06 14:34 | 44.20202 | 10.34763 | 20088 ft | 377 kts | 180° |
| 2026-05-06 14:35 | 44.17583 | 10.35057 | 20693 ft | 378 kts | 182° |
| 2026-05-06 14:35 | 44.14969 | 10.34931 | 21240 ft | 376 kts | 192° |
| 2026-05-06 14:35 | 44.12378 | 10.34383 | 21784 ft | 377 kts | 193° |
| 2026-05-06 14:35 | 44.09778 | 10.33795 | 22317 ft | 380 kts | 193° |
| 2026-05-06 14:36 | 44.07152 | 10.33193 | 22850 ft | 384 kts | 193° |
| 2026-05-06 14:36 | 44.04509 | 10.32590 | 23385 ft | 387 kts | 192° |
| 2026-05-06 14:36 | 44.02704 | 10.32232 | 23615 ft | 388 kts | 190° |
| 2026-05-06 14:36 | 44.00027 | 10.31828 | 24104 ft | 388 kts | 190° |
| 2026-05-06 14:37 | 43.97339 | 10.31355 | 24453 ft | 391 kts | 193° |
| 2026-05-06 14:37 | 43.94658 | 10.30691 | 24889 ft | 392 kts | 195° |
| 2026-05-06 14:37 | 43.91977 | 10.30015 | 25442 ft | 391 kts | 194° |
| 2026-05-06 14:37 | 43.89286 | 10.29392 | 25847 ft | 393 kts | 193° |
| 2026-05-06 14:38 | 43.86576 | 10.28792 | 26271 ft | 395 kts | 193° |
| 2026-05-06 14:38 | 43.83855 | 10.28202 | 26678 ft | 397 kts | 193° |
| 2026-05-06 14:38 | 43.81158 | 10.27622 | 27056 ft | 398 kts | 193° |
| 2026-05-06 14:38 | 43.78376 | 10.27023 | 27454 ft | 400 kts | 193° |
| 2026-05-06 14:39 | 43.75616 | 10.26429 | 27822 ft | 402 kts | 193° |
| 2026-05-06 14:39 | 43.72890 | 10.25841 | 28219 ft | 403 kts | 193° |
| 2026-05-06 14:39 | 43.70115 | 10.25243 | 28600 ft | 404 kts | 193° |
| 2026-05-06 14:39 | 43.67325 | 10.24640 | 28804 ft | 410 kts | 193° |
| 2026-05-06 14:40 | 43.61588 | 10.23396 | 28936 ft | 424 kts | 193° |
| 2026-05-06 14:40 | 43.58654 | 10.22763 | 29062 ft | 429 kts | 193° |
| 2026-05-06 14:40 | 43.55696 | 10.22127 | 29293 ft | 430 kts | 193° |
| 2026-05-06 14:41 | 43.52747 | 10.21496 | 29705 ft | 428 kts | 193° |
| 2026-05-06 14:41 | 43.49813 | 10.20869 | 30111 ft | 425 kts | 193° |
| 2026-05-06 14:41 | 43.46896 | 10.20246 | 30462 ft | 423 kts | 193° |
| 2026-05-06 14:41 | 43.43997 | 10.19626 | 30829 ft | 420 kts | 193° |
| 2026-05-06 14:42 | 43.41109 | 10.19009 | 31132 ft | 419 kts | 193° |
| 2026-05-06 14:42 | 43.38227 | 10.18392 | 31384 ft | 419 kts | 193° |
| 2026-05-06 14:42 | 43.35340 | 10.17773 | 31574 ft | 421 kts | 193° |
| 2026-05-06 14:42 | 43.32443 | 10.17153 | 31787 ft | 421 kts | 193° |
| 2026-05-06 14:43 | 43.29554 | 10.16536 | 32088 ft | 419 kts | 193° |
| 2026-05-06 14:43 | 43.26676 | 10.15923 | 32414 ft | 418 kts | 193° |
| 2026-05-06 14:43 | 43.23811 | 10.15313 | 32701 ft | 417 kts | 193° |
| 2026-05-06 14:43 | 43.20947 | 10.14704 | 32957 ft | 416 kts | 193° |
| 2026-05-06 14:44 | 43.18086 | 10.14096 | 33198 ft | 416 kts | 193° |
| 2026-05-06 14:44 | 43.15227 | 10.13488 | 33388 ft | 417 kts | 193° |
| 2026-05-06 14:44 | 43.12363 | 10.12879 | 33595 ft | 417 kts | 193° |
| 2026-05-06 14:45 | 43.06653 | 10.11670 | 34139 ft | 414 kts | 193° |
| 2026-05-06 14:45 | 43.03805 | 10.11067 | 34315 ft | 415 kts | 193° |
| 2026-05-06 14:45 | 43.00952 | 10.10463 | 34471 ft | 415 kts | 193° |
| 2026-05-06 14:45 | 42.98096 | 10.09860 | 34636 ft | 415 kts | 193° |
| 2026-05-06 14:46 | 42.95238 | 10.09256 | 34803 ft | 416 kts | 193° |
| 2026-05-06 14:46 | 42.92372 | 10.08652 | 34908 ft | 418 kts | 193° |
| 2026-05-06 14:46 | 42.89493 | 10.08044 | 34911 ft | 419 kts | 193° |
| 2026-05-06 14:47 | 42.83747 | 10.06837 | 34916 ft | 416 kts | 193° |
| 2026-05-06 14:47 | 42.78036 | 10.05640 | 34908 ft | 414 kts | 193° |
| 2026-05-06 14:48 | 42.72349 | 10.04449 | 34917 ft | 413 kts | 193° |
| 2026-05-06 14:48 | 42.66674 | 10.03261 | 34918 ft | 413 kts | 193° |
| 2026-05-06 14:49 | 42.60998 | 10.02076 | 34916 ft | 413 kts | 193° |
| 2026-05-06 14:49 | 42.55325 | 10.00894 | 34905 ft | 412 kts | 193° |
| 2026-05-06 14:50 | 42.49698 | 9.99724 | 34907 ft | 412 kts | 193° |
| 2026-05-06 14:50 | 42.44040 | 9.98549 | 34913 ft | 411 kts | 193° |
| 2026-05-06 14:51 | 42.38380 | 9.97376 | 34909 ft | 411 kts | 193° |
| 2026-05-06 14:51 | 42.32723 | 9.96205 | 34907 ft | 411 kts | 193° |
| 2026-05-06 14:52 | 42.27063 | 9.95037 | 34908 ft | 411 kts | 193° |
| 2026-05-06 14:52 | 42.21402 | 9.93870 | 34904 ft | 412 kts | 193° |
| 2026-05-06 14:53 | 42.15740 | 9.92706 | 34898 ft | 411 kts | 193° |
| 2026-05-06 14:53 | 42.10099 | 9.91548 | 34902 ft | 410 kts | 193° |
| 2026-05-06 14:54 | 42.04468 | 9.90394 | 34903 ft | 409 kts | 193° |
| 2026-05-06 14:54 | 41.98847 | 9.89243 | 34907 ft | 408 kts | 193° |
| 2026-05-06 14:55 | 41.93247 | 9.88101 | 34899 ft | 405 kts | 194° |
| 2026-05-06 14:55 | 41.87696 | 9.86970 | 34903 ft | 402 kts | 194° |
| 2026-05-06 14:56 | 41.82181 | 9.85847 | 34908 ft | 400 kts | 194° |
| 2026-05-06 14:56 | 41.76686 | 9.84730 | 34900 ft | 399 kts | 194° |
| 2026-05-06 14:57 | 41.71212 | 9.83620 | 34918 ft | 397 kts | 194° |
| 2026-05-06 14:57 | 41.65720 | 9.82511 | 34934 ft | 403 kts | 193° |
| 2026-05-06 14:58 | 41.60162 | 9.81381 | 34930 ft | 409 kts | 193° |
| 2026-05-06 14:58 | 41.54543 | 9.80247 | 34911 ft | 406 kts | 193° |
| 2026-05-06 14:59 | 41.49028 | 9.79142 | 34928 ft | 397 kts | 193° |
| 2026-05-06 14:59 | 41.43559 | 9.78041 | 34933 ft | 397 kts | 194° |
| 2026-05-06 15:00 | 41.38096 | 9.76942 | 34937 ft | 397 kts | 193° |
| 2026-05-06 15:00 | 41.32613 | 9.75842 | 34937 ft | 400 kts | 193° |
| 2026-05-06 15:01 | 41.27106 | 9.74739 | 34949 ft | 401 kts | 193° |
| 2026-05-06 15:01 | 41.21581 | 9.73636 | 34945 ft | 402 kts | 193° |
| 2026-05-06 15:02 | 41.16046 | 9.72533 | 34943 ft | 402 kts | 193° |
| 2026-05-06 15:02 | 41.10509 | 9.71431 | 34937 ft | 402 kts | 193° |
| 2026-05-06 15:03 | 41.04981 | 9.70333 | 34945 ft | 402 kts | 193° |
| 2026-05-06 15:03 | 40.99450 | 9.69235 | 34941 ft | 402 kts | 193° |
| 2026-05-06 15:04 | 40.93961 | 9.68148 | 34912 ft | 401 kts | 194° |
| 2026-05-06 15:04 | 40.88646 | 9.66208 | 34945 ft | 394 kts | 205° |
| 2026-05-06 15:05 | 40.83538 | 9.63525 | 34948 ft | 396 kts | 205° |
| 2026-05-06 15:05 | 40.78401 | 9.60882 | 34950 ft | 397 kts | 204° |
| 2026-05-06 15:06 | 40.73261 | 9.58253 | 34926 ft | 397 kts | 204° |
| 2026-05-06 15:06 | 40.68118 | 9.55634 | 34954 ft | 396 kts | 205° |
| 2026-05-06 15:07 | 40.62966 | 9.53007 | 34947 ft | 397 kts | 205° |
| 2026-05-06 15:07 | 40.57814 | 9.50384 | 34947 ft | 397 kts | 204° |
| 2026-05-06 15:08 | 40.52666 | 9.47755 | 34948 ft | 397 kts | 205° |
| 2026-05-06 15:08 | 40.47512 | 9.45123 | 34924 ft | 399 kts | 204° |
| 2026-05-06 15:08 | 40.44899 | 9.43798 | 34626 ft | 403 kts | 204° |
| 2026-05-06 15:09 | 40.42282 | 9.42471 | 34196 ft | 402 kts | 203° |
| 2026-05-06 15:09 | 40.39728 | 9.41181 | 33794 ft | 396 kts | 203° |
| 2026-05-06 15:09 | 40.37169 | 9.39884 | 33394 ft | 394 kts | 203° |
| 2026-05-06 15:09 | 40.34608 | 9.38589 | 33131 ft | 396 kts | 203° |
| 2026-05-06 15:10 | 40.32051 | 9.37300 | 32723 ft | 386 kts | 203° |
| 2026-05-06 15:10 | 40.29592 | 9.36072 | 32344 ft | 372 kts | 204° |
| 2026-05-06 15:10 | 40.27197 | 9.34871 | 31936 ft | 366 kts | 204° |
| 2026-05-06 15:10 | 40.24833 | 9.33679 | 31545 ft | 362 kts | 204° |
| 2026-05-06 15:11 | 40.22494 | 9.32500 | 31145 ft | 358 kts | 204° |
| 2026-05-06 15:11 | 40.20192 | 9.31342 | 30778 ft | 352 kts | 204° |
| 2026-05-06 15:11 | 40.17920 | 9.30200 | 30412 ft | 348 kts | 204° |
| 2026-05-06 15:11 | 40.15665 | 9.29068 | 30048 ft | 345 kts | 204° |
| 2026-05-06 15:12 | 40.13430 | 9.27947 | 29616 ft | 343 kts | 204° |
| 2026-05-06 15:12 | 40.11216 | 9.26837 | 29204 ft | 339 kts | 204° |
| 2026-05-06 15:12 | 40.09019 | 9.25736 | 28795 ft | 335 kts | 204° |
| 2026-05-06 15:12 | 40.06857 | 9.24654 | 28446 ft | 331 kts | 204° |
| 2026-05-06 15:13 | 40.04712 | 9.23580 | 28061 ft | 328 kts | 204° |
| 2026-05-06 15:13 | 40.02619 | 9.22537 | 27732 ft | 318 kts | 204° |
| 2026-05-06 15:13 | 40.00563 | 9.21510 | 27388 ft | 315 kts | 204° |
| 2026-05-06 15:13 | 39.98517 | 9.20490 | 27033 ft | 314 kts | 204° |
| 2026-05-06 15:14 | 39.96483 | 9.19474 | 26682 ft | 312 kts | 204° |
| 2026-05-06 15:14 | 39.94458 | 9.18462 | 26331 ft | 311 kts | 204° |
| 2026-05-06 15:14 | 39.92457 | 9.17465 | 25986 ft | 305 kts | 204° |
| 2026-05-06 15:14 | 39.90477 | 9.16481 | 25660 ft | 305 kts | 205° |
| 2026-05-06 15:15 | 39.88495 | 9.15495 | 25305 ft | 304 kts | 205° |
| 2026-05-06 15:15 | 39.86522 | 9.14514 | 24966 ft | 303 kts | 204° |
| 2026-05-06 15:15 | 39.84507 | 9.13661 | 24438 ft | 308 kts | 200° |
| 2026-05-06 15:15 | 39.82399 | 9.12944 | 23843 ft | 314 kts | 198° |
| 2026-05-06 15:16 | 39.80278 | 9.12266 | 23471 ft | 315 kts | 198° |
| 2026-05-06 15:16 | 39.78155 | 9.11586 | 23096 ft | 313 kts | 198° |
| 2026-05-06 15:16 | 39.76047 | 9.10901 | 22740 ft | 311 kts | 198° |
| 2026-05-06 15:16 | 39.73984 | 9.10222 | 22401 ft | 309 kts | 198° |
| 2026-05-06 15:17 | 39.71906 | 9.09532 | 22071 ft | 307 kts | 198° |
| 2026-05-06 15:17 | 39.69842 | 9.08845 | 21743 ft | 305 kts | 197° |
| 2026-05-06 15:17 | 39.67787 | 9.08161 | 21426 ft | 304 kts | 197° |
| 2026-05-06 15:17 | 39.65702 | 9.07677 | 21064 ft | 310 kts | 184° |
| 2026-05-06 15:18 | 39.63556 | 9.08132 | 20724 ft | 319 kts | 165° |
| 2026-05-06 15:18 | 39.61557 | 9.09489 | 20373 ft | 326 kts | 155° |
| 2026-05-06 15:18 | 39.59641 | 9.11054 | 20020 ft | 326 kts | 153° |
| 2026-05-06 15:18 | 39.57745 | 9.12645 | 19715 ft | 325 kts | 153° |
| 2026-05-06 15:19 | 39.55850 | 9.14235 | 19392 ft | 323 kts | 153° |
| 2026-05-06 15:19 | 39.53967 | 9.15808 | 19077 ft | 322 kts | 153° |
| 2026-05-06 15:19 | 39.52090 | 9.17366 | 18759 ft | 319 kts | 153° |
| 2026-05-06 15:19 | 39.50226 | 9.18907 | 18142 ft | 320 kts | 153° |
| 2026-05-06 15:20 | 39.48297 | 9.20486 | 16914 ft | 337 kts | 152° |
| 2026-05-06 15:20 | 39.46272 | 9.22141 | 15736 ft | 351 kts | 151° |
| 2026-05-06 15:20 | 39.44182 | 9.23853 | 14630 ft | 360 kts | 150° |
| 2026-05-06 15:20 | 39.42036 | 9.25612 | 13832 ft | 368 kts | 150° |
| 2026-05-06 15:21 | 39.39883 | 9.27378 | 13393 ft | 363 kts | 150° |
| 2026-05-06 15:21 | 39.37771 | 9.29110 | 12877 ft | 355 kts | 150° |
| 2026-05-06 15:21 | 39.35698 | 9.30806 | 12072 ft | 351 kts | 149° |
| 2026-05-06 15:21 | 39.33638 | 9.32487 | 11258 ft | 350 kts | 149° |
| 2026-05-06 15:22 | 39.31590 | 9.34158 | 10470 ft | 349 kts | 149° |
| 2026-05-06 15:22 | 39.29556 | 9.35817 | 9791 ft | 343 kts | 149° |
| 2026-05-06 15:22 | 39.27544 | 9.37456 | 9126 ft | 340 kts | 149° |
| 2026-05-06 15:22 | 39.25613 | 9.39028 | 9013 ft | 318 kts | 149° |
| 2026-05-06 15:23 | 39.23800 | 9.40503 | 8868 ft | 299 kts | 149° |
| 2026-05-06 15:23 | 39.22090 | 9.41896 | 8745 ft | 282 kts | 149° |
| 2026-05-06 15:23 | 39.20473 | 9.43217 | 8553 ft | 269 kts | 149° |
| 2026-05-06 15:23 | 39.18898 | 9.44520 | 8234 ft | 269 kts | 150° |
| 2026-05-06 15:24 | 39.17348 | 9.45848 | 7993 ft | 266 kts | 149° |
| 2026-05-06 15:24 | 39.15815 | 9.47179 | 7651 ft | 267 kts | 149° |
| 2026-05-06 15:24 | 39.14261 | 9.48541 | 7231 ft | 272 kts | 149° |
| 2026-05-06 15:24 | 39.12648 | 9.49828 | 6813 ft | 273 kts | 161° |
| 2026-05-06 15:25 | 39.10801 | 9.50206 | 6438 ft | 267 kts | 186° |
| 2026-05-06 15:25 | 39.09082 | 9.49528 | 6130 ft | 256 kts | 212° |
| 2026-05-06 15:25 | 39.07867 | 9.47936 | 5852 ft | 248 kts | 238° |
| 2026-05-06 15:25 | 39.07335 | 9.45881 | 5579 ft | 242 kts | 265° |
| 2026-05-06 15:26 | 39.07321 | 9.44460 | 5449 ft | 239 kts | 268° |
| 2026-05-06 15:26 | 39.07323 | 9.42294 | 5188 ft | 246 kts | 268° |
| 2026-05-06 15:26 | 39.07315 | 9.40052 | 4990 ft | 254 kts | 268° |
| 2026-05-06 15:26 | 39.07295 | 9.37789 | 4887 ft | 251 kts | 268° |
| 2026-05-06 15:27 | 39.07243 | 9.34844 | 4693 ft | 246 kts | 267° |
| 2026-05-06 15:27 | 39.07210 | 9.32671 | 4549 ft | 239 kts | 268° |
| 2026-05-06 15:27 | 39.07191 | 9.31247 | 4472 ft | 232 kts | 267° |
| 2026-05-06 15:27 | 39.07176 | 9.29227 | 4358 ft | 220 kts | 270° |
| 2026-05-06 15:28 | 39.07376 | 9.27275 | 4145 ft | 222 kts | 284° |
| 2026-05-06 15:28 | 39.08054 | 9.25474 | 3912 ft | 229 kts | 310° |
| 2026-05-06 15:28 | 39.09211 | 9.24051 | 3690 ft | 230 kts | 316° |
| 2026-05-06 15:28 | 39.10384 | 9.22649 | 3428 ft | 229 kts | 316° |
| 2026-05-06 15:29 | 39.11530 | 9.21295 | 3321 ft | 221 kts | 316° |
| 2026-05-06 15:29 | 39.12676 | 9.19955 | 3045 ft | 223 kts | 317° |
| 2026-05-06 15:29 | 39.13818 | 9.18624 | 2772 ft | 220 kts | 317° |
| 2026-05-06 15:29 | 39.14941 | 9.17316 | 2463 ft | 214 kts | 317° |
| 2026-05-06 15:30 | 39.16020 | 9.16057 | 2173 ft | 205 kts | 318° |
| 2026-05-06 15:30 | 39.17045 | 9.14862 | 1896 ft | 191 kts | 318° |
| 2026-05-06 15:30 | 39.17989 | 9.13761 | 1680 ft | 179 kts | 319° |
| 2026-05-06 15:30 | 39.18903 | 9.12697 | 1423 ft | 175 kts | 319° |
| 2026-05-06 15:31 | 39.19784 | 9.11670 | 1183 ft | 165 kts | 319° |
| 2026-05-06 15:31 | 39.20611 | 9.10706 | 973 ft | 157 kts | 319° |
| 2026-05-06 15:31 | 39.21425 | 9.09759 | 794 ft | 159 kts | 319° |
| 2026-05-06 15:32 | 39.23001 | 9.07904 | 358 ft | 149 kts | 319° |
| 2026-05-06 15:32 | 39.23750 | 9.07024 | 158 ft | 144 kts | 319° |
| 2026-05-06 15:32 | 39.24501 | 9.06173 | 18 ft | 139 kts | 319° |
| 2026-05-06 15:32 | 39.25132 | 9.05447 | 14 ft | 100 kts | 318° |
| 2026-05-06 15:33 | 39.25534 | 9.04981 | 15 ft | 54 kts | 318° |
| 2026-05-06 15:33 | 39.25734 | 9.04862 | 15 ft | 29 kts | 17° |
| 2026-05-06 15:33 | 39.25712 | 9.05050 | 14 ft | 26 kts | 138° |
| 2026-05-06 15:33 | 39.25582 | 9.05199 | 14 ft | 24 kts | 138° |
| 2026-05-06 15:34 | 39.25461 | 9.05338 | 14 ft | 23 kts | 138° |
| 2026-05-06 15:34 | 39.25345 | 9.05473 | 14 ft | 22 kts | 139° |
| 2026-05-06 15:34 | 39.25233 | 9.05605 | 14 ft | 22 kts | 136° |
| 2026-05-06 15:34 | 39.25126 | 9.05735 | 14 ft | 21 kts | 117° |
| 2026-05-06 15:35 | 39.25146 | 9.05890 | 14 ft | 17 kts | 112° |
| 2026-05-06 15:35 | 39.25188 | 9.05998 | 14 ft | 14 kts | 51° |
| 2026-05-06 15:35 | 39.25230 | 9.06060 | 14 ft | 2 kts | 17° |
| 2026-05-06 15:35 | 39.25255 | 9.06047 | 16 ft | 8 kts | 326° |
| 2026-05-06 15:36 | 39.25285 | 9.06017 | 14 ft | 0 kts | 321° |